Time;durP1;ratioP1;P1;durP2;ratioP2;P2;SDS_P1;SDS_P2;PMS_P1;PMS_P2;Temp;Humidity;BMP_temperature;BMP_pressure;BME280_temperature;BME280_humidity;BME280_pressure;Samples;Min_cycle;Max_cycle;Signal;HPM_P1;HPM_P2
2022/07/29 00:01:57;;;;;;;6.75;3.50;;;36.10;99.90;;;;;;5017874;28;20339;-95
2022/07/29 00:04:32;;;;;;;4.45;3.55;;;36.10;99.90;;;;;;5018563;28;20280;-94
2022/07/29 00:07:04;;;;;;;3.78;3.45;;;35.90;99.90;;;;;;5018572;28;20221;-94
2022/07/29 00:09:35;;;;;;;5.30;3.72;;;35.80;99.90;;;;;;5018910;28;20293;-94
2022/07/29 00:12:22;;;;;;;6.88;3.67;;;35.20;99.90;;;;;;5018862;28;20623;-95
2022/07/29 00:14:56;;;;;;;5.43;4.00;;;35.00;99.90;;;;;;5018186;28;20255;-95
2022/07/29 00:17:28;;;;;;;4.22;3.80;;;34.80;99.90;;;;;;5016563;28;20233;-95
2022/07/29 00:20:01;;;;;;;4.82;4.20;;;35.00;99.90;;;;;;5017983;28;20264;-95
2022/07/29 00:22:33;;;;;;;4.05;3.65;;;35.40;99.90;;;;;;5016756;28;20233;-95
2022/07/29 00:25:05;;;;;;;6.78;3.88;;;35.70;99.90;;;;;;5017789;28;20209;-95
2022/07/29 00:27:38;;;;;;;5.28;3.65;;;36.00;99.90;;;;;;5032952;28;20209;-94
2022/07/29 00:30:10;;;;;;;4.95;3.80;;;36.10;99.90;;;;;;5036865;28;20256;-95
2022/07/29 00:32:42;;;;;;;7.22;3.78;;;36.20;99.90;;;;;;5038282;28;20300;-95
2022/07/29 00:38:04;;;;;;;4.18;3.63;;;36.40;99.90;;;;;;5038672;28;20243;-94
2022/07/29 00:40:35;;;;;;;4.85;3.63;;;36.40;99.90;;;;;;5036963;28;20213;-94
2022/07/29 00:43:13;;;;;;;4.53;3.55;;;36.30;99.40;;;;;;5038478;28;20263;-94
2022/07/29 00:45:46;;;;;;;4.25;3.20;;;36.20;99.20;;;;;;5037829;28;20274;-94
2022/07/29 00:48:17;;;;;;;4.25;3.30;;;36.00;99.50;;;;;;5040668;28;20212;-94
2022/07/29 00:53:39;;;;;;;4.95;3.47;;;35.60;98.00;;;;;;5919497;23;20233;-94
2022/07/29 00:56:11;;;;;;;4.22;2.92;;;35.50;98.20;;;;;;5035259;28;20233;-96
2022/07/29 00:58:50;;;;;;;4.22;3.33;;;35.30;98.60;;;;;;5036635;28;20193;-95
2022/07/29 01:04:09;;;;;;;3.92;3.50;;;35.30;99.30;;;;;;5036819;28;20210;-96
2022/07/29 01:06:42;;;;;;;8.38;3.75;;;35.30;98.60;;;;;;5036281;28;20222;-94
2022/07/29 01:09:28;;;;;;;6.20;3.00;;;35.30;98.90;;;;;;5040008;28;20186;-94
2022/07/29 01:18:08;;;;;;;3.83;3.45;;;36.00;98.20;;;;;;5072015;28;20240;-94
2022/07/29 01:20:57;;;;;;;6.03;3.50;;;36.40;97.70;;;;;;5077464;28;20227;-93
2022/07/29 01:24:02;;;;;;;4.35;3.40;;;36.30;97.70;;;;;;5075778;28;20218;-93
2022/07/29 01:27:04;;;;;;;4.18;3.33;;;36.80;97.60;;;;;;5077080;28;20254;-94
2022/07/29 01:32:44;;;;;;;8.48;4.28;;;37.40;97.70;;;;;;5091462;23;20295;-94
2022/07/29 01:35:20;;;;;;;4.47;3.53;;;37.20;96.60;;;;;;5056695;28;20217;-93
2022/07/29 01:38:00;;;;;;;5.45;3.35;;;37.10;97.30;;;;;;5052282;28;20242;-93
2022/07/29 01:40:36;;;;;;;4.35;3.58;;;37.20;97.00;;;;;;5047243;28;20205;-93
2022/07/29 01:43:13;;;;;;;4.05;3.20;;;37.20;96.80;;;;;;5044810;28;20212;-93
2022/07/29 01:45:52;;;;;;;4.25;3.85;;;37.40;96.20;;;;;;5043722;28;20209;-93
2022/07/29 01:48:29;;;;;;;4.50;4.03;;;37.70;95.70;;;;;;5041697;28;20224;-93
2022/07/29 01:51:04;;;;;;;4.05;3.50;;;37.50;95.60;;;;;;5040803;28;20243;-93
2022/07/29 01:53:41;;;;;;;5.38;3.92;;;37.40;96.10;;;;;;5040853;28;20208;-92
2022/07/29 01:56:14;;;;;;;4.53;4.13;;;37.20;95.70;;;;;;5041104;28;20232;-93
2022/07/29 01:58:47;;;;;;;5.47;3.67;;;36.80;96.30;;;;;;5041675;28;20193;-93
2022/07/29 02:01:23;;;;;;;4.57;3.75;;;36.30;96.90;;;;;;5040282;28;20219;-94
2022/07/29 02:03:57;;;;;;;4.55;4.13;;;36.10;96.60;;;;;;5040908;28;20227;-93
2022/07/29 02:06:29;;;;;;;4.85;3.83;;;35.90;96.70;;;;;;5041066;28;20731;-93
2022/07/29 02:09:04;;;;;;;4.32;3.92;;;35.90;97.10;;;;;;5040200;28;20213;-94
2022/07/29 02:11:39;;;;;;;4.72;4.00;;;35.20;97.30;;;;;;5039764;28;20258;-95
2022/07/29 02:14:14;;;;;;;7.40;4.55;;;34.60;98.60;;;;;;5040134;28;20728;-94
2022/07/29 02:16:51;;;;;;;5.95;4.50;;;33.90;98.80;;;;;;5040490;28;20292;-95
2022/07/29 02:19:25;;;;;;;4.25;3.95;;;33.60;99.20;;;;;;5040352;28;20224;-94
2022/07/29 02:21:58;;;;;;;5.22;3.92;;;33.20;99.90;;;;;;5043324;28;20196;-94
2022/07/29 02:24:30;;;;;;;5.30;4.15;;;33.00;99.90;;;;;;5046300;28;20221;-95
2022/07/29 02:27:03;;;;;;;4.95;4.32;;;32.80;99.90;;;;;;5041808;28;20212;-95
2022/07/29 02:29:36;;;;;;;4.93;4.20;;;32.60;99.90;;;;;;5040399;28;20213;-94
2022/07/29 02:32:13;;;;;;;7.63;4.22;;;32.40;99.90;;;;;;5041597;28;20213;-95
2022/07/29 02:34:46;;;;;;;7.50;4.50;;;32.30;99.90;;;;;;5042530;28;20731;-95
2022/07/29 02:37:20;;;;;;;4.28;3.85;;;32.00;99.90;;;;;;5040467;28;20286;-95
2022/07/29 02:39:53;;;;;;;7.95;4.60;;;31.90;99.90;;;;;;5041385;28;20209;-95
2022/07/29 02:42:26;;;;;;;4.75;4.15;;;31.80;99.90;;;;;;5039692;28;20228;-94
2022/07/29 02:45:00;;;;;;;4.95;4.20;;;31.70;99.90;;;;;;5042911;28;20290;-94
2022/07/29 02:47:36;;;;;;;5.38;4.88;;;31.50;99.90;;;;;;5039287;28;20674;-94
2022/07/29 02:50:16;;;;;;;6.93;4.90;;;31.40;99.90;;;;;;5039810;28;20214;-95
2022/07/29 02:52:51;;;;;;;7.35;4.18;;;31.30;99.90;;;;;;5039138;28;20201;-94
2022/07/29 02:55:39;;;;;;;6.63;4.05;;;31.20;99.90;;;;;;5039802;28;20201;-95
2022/07/29 02:58:19;;;;;;;6.55;4.20;;;31.10;99.90;;;;;;5040368;28;20259;-94
2022/07/29 03:00:52;;;;;;;5.10;4.15;;;31.00;99.90;;;;;;5039258;28;20209;-95
2022/07/29 03:03:30;;;;;;;5.85;3.92;;;30.80;99.90;;;;;;5039142;28;20271;-95
2022/07/29 03:06:03;;;;;;;5.82;4.18;;;30.70;99.90;;;;;;5038942;28;20279;-94
2022/07/29 03:08:35;;;;;;;4.65;4.20;;;30.60;99.90;;;;;;5039450;28;20298;-95
2022/07/29 03:11:07;;;;;;;4.50;4.18;;;30.50;99.90;;;;;;5040069;28;20216;-94
2022/07/29 03:13:41;;;;;;;4.32;3.92;;;30.40;99.90;;;;;;5043627;28;20209;-94
2022/07/29 03:16:15;;;;;;;6.03;4.47;;;30.30;99.90;;;;;;5042079;28;20580;-94
2022/07/29 03:18:49;;;;;;;5.30;4.13;;;30.20;99.90;;;;;;5038587;28;20239;-95
2022/07/29 03:21:20;;;;;;;6.47;4.10;;;30.10;99.90;;;;;;5037154;28;20220;-95
2022/07/29 03:23:53;;;;;;;4.53;4.13;;;29.90;99.90;;;;;;5038396;28;20239;-95
2022/07/29 03:26:24;;;;;;;6.90;4.15;;;29.90;99.90;;;;;;5037515;28;20208;-95
2022/07/29 03:28:57;;;;;;;7.70;4.53;;;29.80;99.90;;;;;;5037704;28;20201;-95
2022/07/29 03:31:28;;;;;;;7.40;4.30;;;29.60;99.90;;;;;;5036753;28;20208;-95
2022/07/29 03:34:05;;;;;;;4.88;4.03;;;29.50;99.90;;;;;;5041571;28;20657;-94
2022/07/29 03:39:46;;;;;;;6.95;4.82;;;29.30;99.90;;;;;;5046600;28;20228;-95
2022/07/29 03:42:39;;;;;;;7.93;5.20;;;29.20;99.90;;;;;;5043590;28;20208;-95
2022/07/29 03:45:18;;;;;;;12.23;7.80;;;28.90;99.90;;;;;;5050555;28;20220;-93
2022/07/29 03:51:22;;;;;;;6.03;5.27;;;27.80;99.90;;;;;;5052994;28;20213;-93
2022/07/29 04:05:26;;;;;;;5.20;4.70;;;26.80;99.90;;;;;;5908004;23;20356;-95
2022/07/29 04:10:39;;;;;;;6.77;4.43;;;26.80;99.90;;;;;;5096645;23;20309;-94
2022/07/29 04:13:32;;;;;;;4.93;4.20;;;26.90;99.90;;;;;;5044409;28;20204;-94
2022/07/29 04:18:59;;;;;;;5.37;4.07;;;26.90;99.90;;;;;;5562229;23;20247;-94
2022/07/29 04:21:30;;;;;;;6.20;4.10;;;26.90;99.90;;;;;;5018890;28;20226;-94
2022/07/29 04:24:02;;;;;;;5.47;4.20;;;26.90;99.90;;;;;;5016681;28;20580;-94
2022/07/29 04:26:40;;;;;;;4.10;3.70;;;26.80;99.90;;;;;;5018278;28;20221;-93
2022/07/29 04:29:16;;;;;;;5.40;4.10;;;26.70;99.90;;;;;;5030073;28;20193;-94
2022/07/29 04:35:10;;;;;;;5.07;4.40;;;26.60;99.90;;;;;;5069062;23;20275;-94
2022/07/29 04:37:52;;;;;;;5.50;4.07;;;26.50;99.90;;;;;;5051843;28;20232;-94
2022/07/29 04:44:20;;;;;;;7.17;4.47;;;26.40;99.90;;;;;;5055651;28;20224;-94
2022/07/29 04:47:01;;;;;;;5.27;4.40;;;26.30;99.90;;;;;;5052553;28;20208;-93
2022/07/29 04:49:32;;;;;;;4.90;3.70;;;26.10;99.90;;;;;;5041805;28;20239;-94
2022/07/29 04:52:05;;;;;;;6.20;3.73;;;26.10;99.90;;;;;;5041730;28;20212;-94
2022/07/29 04:54:36;;;;;;;4.70;3.73;;;26.00;99.90;;;;;;5041269;28;20217;-94
2022/07/29 04:57:08;;;;;;;5.77;3.80;;;25.90;99.90;;;;;;5041175;28;20331;-94
2022/07/29 04:59:39;;;;;;;5.57;4.17;;;25.90;99.90;;;;;;5218493;23;20240;-93
2022/07/29 05:02:14;;;;;;;4.83;3.50;;;25.80;99.90;;;;;;5043640;28;20232;-94
2022/07/29 05:04:46;;;;;;;6.20;3.83;;;25.70;99.90;;;;;;5041850;28;20205;-93
2022/07/29 05:07:19;;;;;;;7.33;4.00;;;25.50;99.90;;;;;;5041422;28;20266;-94
2022/07/29 05:09:50;;;;;;;6.87;3.97;;;25.50;99.90;;;;;;5039971;28;20259;-93
2022/07/29 05:12:23;;;;;;;5.23;3.80;;;25.40;99.90;;;;;;5048759;28;20196;-94
2022/07/29 05:14:56;;;;;;;5.07;3.73;;;25.30;99.90;;;;;;5043496;28;20209;-94
2022/07/29 05:17:31;;;;;;;4.73;3.63;;;25.20;99.90;;;;;;5024174;28;20221;-94
2022/07/29 05:20:03;;;;;;;4.30;3.60;;;25.20;99.90;;;;;;5031293;28;20236;-94
2022/07/29 05:22:45;;;;;;;7.30;3.73;;;25.10;99.90;;;;;;5029171;28;20556;-94
2022/07/29 05:25:16;;;;;;;5.03;3.70;;;25.00;99.90;;;;;;5039996;28;20213;-95
2022/07/29 05:34:11;;;;;;;5.00;3.90;;;24.80;99.90;;;;;;5042405;28;20204;-94
2022/07/29 05:36:43;;;;;;;4.37;3.40;;;24.70;99.90;;;;;;5049402;28;20212;-94
2022/07/29 05:39:20;;;;;;;4.30;3.90;;;24.60;99.90;;;;;;5048053;28;20228;-94
2022/07/29 05:42:15;;;;;;;5.13;3.73;;;24.60;99.90;;;;;;5054795;28;20232;-94
2022/07/29 05:44:47;;;;;;;6.73;4.00;;;24.50;99.90;;;;;;5050582;28;20278;-94
2022/07/29 05:47:22;;;;;;;5.17;3.70;;;24.50;99.90;;;;;;5048930;28;20213;-95
2022/07/29 05:50:11;;;;;;;7.80;3.73;;;24.40;99.90;;;;;;5047393;28;20247;-94
2022/07/29 05:52:42;;;;;;;3.97;3.30;;;24.30;99.90;;;;;;5047472;28;20239;-94
2022/07/29 05:55:20;;;;;;;6.00;3.60;;;24.30;99.90;;;;;;5047849;28;20209;-94
2022/07/29 05:58:10;;;;;;;3.70;3.40;;;24.20;99.90;;;;;;5048719;28;20204;-94
2022/07/29 06:00:48;;;;;;;4.33;3.57;;;24.10;99.90;;;;;;5046731;28;20209;-94
2022/07/29 06:03:20;;;;;;;6.20;3.83;;;24.00;99.90;;;;;;5047228;28;20661;-94
2022/07/29 06:05:55;;;;;;;4.83;3.60;;;24.00;99.90;;;;;;5040866;28;20205;-94
2022/07/29 06:08:26;;;;;;;5.43;3.40;;;23.90;99.90;;;;;;5044616;28;20208;-94
2022/07/29 06:10:58;;;;;;;5.00;3.70;;;23.90;99.90;;;;;;5038020;28;20213;-94
2022/07/29 06:13:30;;;;;;;4.83;3.63;;;23.80;99.90;;;;;;5037918;28;20228;-94
2022/07/29 06:16:02;;;;;;;9.20;4.20;;;23.80;99.90;;;;;;5039097;28;20223;-94
2022/07/29 06:18:33;;;;;;;4.30;3.43;;;23.70;99.90;;;;;;5038913;28;20229;-94
2022/07/29 06:21:11;;;;;;;5.63;3.53;;;23.70;99.90;;;;;;5039399;28;20205;-93
2022/07/29 06:23:43;;;;;;;7.23;3.93;;;23.60;99.90;;;;;;5043845;28;20350;-94
2022/07/29 06:26:14;;;;;;;5.63;3.63;;;23.60;99.90;;;;;;5042091;28;20236;-95
2022/07/29 06:28:46;;;;;;;4.40;3.77;;;23.50;99.90;;;;;;5042124;28;20220;-94
2022/07/29 06:31:20;;;;;;;4.80;3.77;;;23.50;99.90;;;;;;5050280;28;20192;-94
2022/07/29 06:33:55;;;;;;;5.50;3.80;;;23.40;99.90;;;;;;5057978;28;20201;-94
2022/07/29 06:36:29;;;;;;;5.37;3.43;;;23.40;99.90;;;;;;5054955;28;20207;-95
2022/07/29 06:39:01;;;;;;;6.60;3.97;;;23.30;99.90;;;;;;5057481;28;20243;-94
2022/07/29 06:41:32;;;;;;;5.60;3.50;;;23.30;99.90;;;;;;5056719;28;20213;-94
2022/07/29 06:44:04;;;;;;;3.83;3.53;;;23.30;99.90;;;;;;5058339;28;20197;-94
2022/07/29 06:46:36;;;;;;;5.93;3.90;;;23.20;99.90;;;;;;5058435;28;20193;-95
2022/07/29 06:49:07;;;;;;;8.63;4.40;;;23.20;99.90;;;;;;5058653;28;20231;-94
2022/07/29 06:51:41;;;;;;;4.67;4.00;;;23.20;99.90;;;;;;5057896;28;20197;-94
2022/07/29 06:54:13;;;;;;;5.50;4.40;;;23.10;99.90;;;;;;5037484;28;20201;-94
2022/07/29 06:56:45;;;;;;;6.03;3.57;;;23.00;99.90;;;;;;5027438;28;20213;-94
2022/07/29 06:59:16;;;;;;;4.07;3.67;;;23.00;99.90;;;;;;5020658;28;20229;-94
2022/07/29 07:01:51;;;;;;;4.30;3.53;;;23.00;99.90;;;;;;5018415;28;20213;-94
2022/07/29 07:04:22;;;;;;;6.53;4.03;;;23.00;99.90;;;;;;5022818;28;20585;-94
2022/07/29 07:09:54;;;;;;;6.17;3.80;;;22.80;99.90;;;;;;5027405;28;20209;-94
2022/07/29 07:15:33;;;;;;;5.93;4.07;;;22.80;99.90;;;;;;5027543;28;20631;-94
2022/07/29 07:18:10;;;;;;;4.87;4.10;;;22.80;99.90;;;;;;5027510;28;20213;-94
2022/07/29 07:20:45;;;;;;;6.77;4.37;;;22.80;99.90;;;;;;5028849;28;20692;-94
2022/07/29 07:23:27;;;;;;;4.60;3.53;;;22.80;99.90;;;;;;5041796;28;20213;-94
2022/07/29 07:28:51;;;;;;;4.33;3.83;;;22.80;99.90;;;;;;5047085;28;20224;-94
2022/07/29 07:31:24;;;;;;;5.27;3.77;;;22.70;99.90;;;;;;5047092;28;20212;-94
2022/07/29 07:34:10;;;;;;;4.40;4.00;;;22.70;99.90;;;;;;5047709;28;20226;-93
2022/07/29 07:36:43;;;;;;;6.20;3.97;;;22.60;99.90;;;;;;5046881;28;20224;-94
2022/07/29 07:39:19;;;;;;;7.40;3.70;;;22.60;99.90;;;;;;5045894;28;20598;-95
2022/07/29 07:41:52;;;;;;;6.83;3.90;;;22.50;99.90;;;;;;5045782;28;20201;-95
2022/07/29 07:44:25;;;;;;;6.20;4.03;;;22.50;99.90;;;;;;5045775;28;20197;-95
2022/07/29 07:47:02;;;;;;;6.60;4.13;;;22.40;99.90;;;;;;5047601;28;20201;-94
2022/07/29 07:49:45;;;;;;;5.67;3.87;;;22.40;99.90;;;;;;5051669;28;20205;-94
2022/07/29 08:06:27;;;;;;;7.27;4.43;;;22.30;99.90;;;;;;5024830;28;20213;-94
2022/07/29 08:08:59;;;;;;;7.20;4.13;;;22.20;99.90;;;;;;5018444;28;20201;-94
2022/07/29 08:11:50;;;;;;;7.57;4.33;;;22.20;99.90;;;;;;5018273;28;20201;-95
2022/07/29 08:14:23;;;;;;;9.43;4.37;;;22.20;99.90;;;;;;5019631;28;20283;-94
2022/07/29 08:16:54;;;;;;;5.97;4.37;;;22.10;99.90;;;;;;5020109;28;20288;-94
2022/07/29 08:22:30;;;;;;;5.17;4.40;;;22.10;99.90;;;;;;5025725;28;20205;-94
2022/07/29 08:25:01;;;;;;;6.63;4.60;;;22.10;99.90;;;;;;5028211;28;20216;-93
2022/07/29 08:27:38;;;;;;;6.13;4.17;;;22.00;99.90;;;;;;5032916;28;20209;-93
2022/07/29 08:30:13;;;;;;;4.87;4.00;;;21.90;99.90;;;;;;5020915;28;20205;-97
2022/07/29 08:32:44;;;;;;;6.23;4.43;;;21.90;99.90;;;;;;5020557;28;20218;-94
2022/07/29 08:35:26;;;;;;;6.50;3.87;;;21.90;99.90;;;;;;5017917;28;20295;-95
2022/07/29 08:40:51;;;;;;;4.47;3.77;;;21.80;99.90;;;;;;5019566;28;20243;-94
2022/07/29 08:43:25;;;;;;;4.73;4.13;;;21.80;99.90;;;;;;4999491;28;20216;-94
2022/07/29 08:45:56;;;;;;;6.53;3.87;;;21.80;99.90;;;;;;5017479;28;20683;-95
2022/07/29 08:48:27;;;;;;;6.23;3.80;;;21.70;99.90;;;;;;5016207;28;20209;-94
2022/07/29 08:51:00;;;;;;;4.10;3.57;;;21.70;99.90;;;;;;4999254;28;20213;-95
2022/07/29 08:53:37;;;;;;;5.60;3.93;;;21.70;99.90;;;;;;5019845;28;20213;-94
2022/07/29 08:56:09;;;;;;;4.20;3.67;;;21.70;99.90;;;;;;5018064;28;20240;-95
2022/07/29 08:58:41;;;;;;;9.03;4.30;;;21.70;99.90;;;;;;5016510;28;20223;-94
2022/07/29 09:01:19;;;;;;;6.30;3.70;;;21.60;99.90;;;;;;5015262;28;20320;-95
2022/07/29 09:03:52;;;;;;;4.70;4.03;;;21.60;99.90;;;;;;5016270;28;20213;-94
2022/07/29 09:06:26;;;;;;;4.53;3.53;;;21.60;99.90;;;;;;5016125;28;20238;-94
2022/07/29 09:09:01;;;;;;;6.13;4.10;;;21.60;99.90;;;;;;5017476;28;20206;-92
2022/07/29 09:14:24;;;;;;;5.30;4.00;;;21.60;99.90;;;;;;5097210;23;21500;-94
2022/07/29 09:16:57;;;;;;;4.70;3.60;;;21.60;99.90;;;;;;5015298;28;20209;-94
2022/07/29 09:19:34;;;;;;;5.87;3.87;;;21.50;99.90;;;;;;5015917;28;20292;-94
2022/07/29 09:22:05;;;;;;;8.50;4.00;;;21.60;99.90;;;;;;5015551;28;20684;-94
2022/07/29 09:24:43;;;;;;;4.00;3.60;;;21.50;99.90;;;;;;4998789;28;20201;-94
2022/07/29 09:27:22;;;;;;;6.17;3.87;;;21.50;99.90;;;;;;5015978;28;20248;-94
2022/07/29 09:30:01;;;;;;;8.73;3.90;;;21.40;99.90;;;;;;5017630;28;20278;-95
2022/07/29 09:32:34;;;;;;;4.93;3.73;;;21.30;99.90;;;;;;5018591;28;20210;-94
2022/07/29 09:35:26;;;;;;;5.37;3.60;;;21.30;99.90;;;;;;5019539;28;20205;-94
2022/07/29 09:37:58;;;;;;;6.13;3.70;;;21.20;99.90;;;;;;5022192;28;20209;-95
2022/07/29 09:40:31;;;;;;;7.10;4.10;;;21.10;99.90;;;;;;5018572;28;20229;-94
2022/07/29 09:43:12;;;;;;;5.73;3.80;;;21.00;99.90;;;;;;5019735;28;20228;-95
2022/07/29 09:45:44;;;;;;;6.17;4.17;;;21.00;99.90;;;;;;5019456;28;20259;-94
2022/07/29 09:48:20;;;;;;;4.67;3.70;;;20.90;99.90;;;;;;5019530;28;20686;-95
2022/07/29 09:50:53;;;;;;;6.13;3.80;;;20.90;99.90;;;;;;5020453;28;20227;-95
2022/07/29 09:53:42;;;;;;;5.27;3.70;;;20.80;99.90;;;;;;5021571;28;20210;-96
2022/07/29 09:56:15;;;;;;;6.53;3.70;;;20.70;99.90;;;;;;5019449;28;20217;-94
2022/07/29 09:58:46;;;;;;;4.83;4.03;;;20.70;99.90;;;;;;5022623;28;20264;-94
2022/07/29 10:01:18;;;;;;;4.40;3.97;;;20.60;99.90;;;;;;5020511;28;20241;-94
2022/07/29 10:03:55;;;;;;;4.03;3.60;;;20.60;99.90;;;;;;5019281;28;20209;-94
2022/07/29 10:06:26;;;;;;;5.73;3.97;;;20.60;99.90;;;;;;5020815;28;20209;-95
2022/07/29 10:09:10;;;;;;;5.57;4.33;;;20.60;99.90;;;;;;5024777;28;20251;-94
2022/07/29 10:11:43;;;;;;;4.87;3.80;;;20.60;99.90;;;;;;5020058;28;20214;-94
2022/07/29 10:14:19;;;;;;;5.70;4.10;;;20.60;99.90;;;;;;5018250;28;20206;-94
2022/07/29 10:16:50;;;;;;;4.70;4.13;;;20.50;99.90;;;;;;5018216;28;20301;-94
2022/07/29 10:19:22;;;;;;;4.67;4.10;;;20.50;99.90;;;;;;5019178;28;20635;-94
2022/07/29 10:21:54;;;;;;;8.03;4.07;;;20.40;99.90;;;;;;5017421;28;20320;-94
2022/07/29 10:24:28;;;;;;;5.27;4.20;;;20.40;99.90;;;;;;5021094;28;20281;-94
2022/07/29 10:27:03;;;;;;;6.20;4.27;;;20.40;99.90;;;;;;5017991;28;20225;-94
2022/07/29 10:29:35;;;;;;;5.23;4.00;;;20.30;99.90;;;;;;5018582;28;20271;-94
2022/07/29 10:32:36;;;;;;;5.63;4.30;;;20.40;99.90;;;;;;5017787;28;20244;-94
2022/07/29 10:35:23;;;;;;;6.30;4.30;;;20.40;99.90;;;;;;5017712;28;20206;-94
2022/07/29 10:38:23;;;;;;;6.57;4.27;;;20.40;99.90;;;;;;5018275;28;20221;-94
2022/07/29 10:43:56;;;;;;;7.37;4.47;;;20.30;99.90;;;;;;5018609;28;20685;-94
2022/07/29 10:46:28;;;;;;;6.50;4.23;;;20.30;99.90;;;;;;5019565;28;20206;-94
2022/07/29 10:49:11;;;;;;;5.70;4.40;;;20.30;99.90;;;;;;5018074;28;20638;-95
2022/07/29 10:52:03;;;;;;;5.33;3.90;;;20.40;99.90;;;;;;5019126;28;20236;-95
2022/07/29 10:54:44;;;;;;;6.43;4.30;;;20.30;99.90;;;;;;5017560;28;20217;-94
2022/07/29 10:57:19;;;;;;;6.57;4.70;;;20.30;99.90;;;;;;5018269;28;20317;-94
2022/07/29 11:00:29;;;;;;;4.63;4.00;;;20.20;99.90;;;;;;5020341;28;20271;-95
2022/07/29 11:03:02;;;;;;;6.47;4.77;;;20.20;99.90;;;;;;5001572;28;20213;-94
2022/07/29 11:06:00;;;;;;;5.10;4.53;;;20.20;99.90;;;;;;5020015;28;20217;-94
2022/07/29 11:08:38;;;;;;;6.40;4.03;;;20.20;99.90;;;;;;5016702;28;20209;-94
2022/07/29 11:11:40;;;;;;;5.67;4.27;;;20.20;99.90;;;;;;5017229;28;20289;-94
2022/07/29 11:14:17;;;;;;;6.00;4.40;;;20.20;99.90;;;;;;5018196;28;20309;-94
2022/07/29 11:17:04;;;;;;;5.27;4.13;;;20.10;99.90;;;;;;5021210;28;20209;-94
2022/07/29 11:19:38;;;;;;;7.60;4.40;;;20.10;99.90;;;;;;5017984;28;20297;-94
2022/07/29 11:22:33;;;;;;;4.50;4.10;;;20.10;99.90;;;;;;5016737;28;20240;-94
2022/07/29 11:25:17;;;;;;;6.13;4.40;;;20.20;99.90;;;;;;5017669;28;20423;-94
2022/07/29 11:28:16;;;;;;;8.07;4.57;;;20.20;99.90;;;;;;5018077;28;20835;-94
2022/07/29 11:30:55;;;;;;;5.33;4.27;;;20.10;99.90;;;;;;5016799;28;20213;-94
2022/07/29 11:33:33;;;;;;;6.73;4.53;;;20.10;99.90;;;;;;5020826;28;20220;-94
2022/07/29 11:36:24;;;;;;;6.97;4.33;;;20.10;99.90;;;;;;5021048;28;20285;-94
2022/07/29 11:39:27;;;;;;;5.17;4.10;;;20.10;99.90;;;;;;5017197;28;20212;-95
2022/07/29 11:42:39;;;;;;;7.87;4.30;;;20.10;99.90;;;;;;5018747;28;20263;-94
2022/07/29 11:45:13;;;;;;;8.17;4.50;;;20.10;99.90;;;;;;5017721;28;20213;-94
2022/07/29 11:48:05;;;;;;;5.17;4.20;;;20.00;99.90;;;;;;5016851;28;20241;-94
2022/07/29 11:50:59;;;;;;;4.80;4.30;;;20.00;99.90;;;;;;5002160;28;20216;-94
2022/07/29 11:53:32;;;;;;;5.27;4.07;;;20.00;99.90;;;;;;5001412;28;20577;-94
2022/07/29 11:56:05;;;;;;;5.10;4.27;;;20.00;99.90;;;;;;4998158;28;20211;-94
2022/07/29 11:58:39;;;;;;;7.63;4.97;;;19.90;99.90;;;;;;4997469;28;20233;-94
2022/07/29 12:01:14;;;;;;;5.40;4.20;;;19.90;99.90;;;;;;4997556;28;20206;-94
2022/07/29 12:03:49;;;;;;;5.13;3.97;;;20.00;99.90;;;;;;5001605;28;20642;-94
2022/07/29 12:06:24;;;;;;;5.00;4.27;;;19.90;99.90;;;;;;4998226;28;20221;-94
2022/07/29 12:08:57;;;;;;;4.73;4.03;;;19.90;99.90;;;;;;5010640;28;20256;-94
2022/07/29 12:11:45;;;;;;;5.30;4.07;;;19.90;99.90;;;;;;5019042;28;20762;-94
2022/07/29 12:14:34;;;;;;;7.33;3.87;;;19.90;99.90;;;;;;5022264;28;20209;-94
2022/07/29 12:17:06;;;;;;;6.67;4.33;;;19.80;99.90;;;;;;5036174;28;20198;-93
2022/07/29 12:19:45;;;;;;;4.60;3.97;;;19.80;99.90;;;;;;5020310;28;20210;-94
2022/07/29 12:22:31;;;;;;;4.37;3.67;;;19.80;99.90;;;;;;5035855;28;20221;-94
2022/07/29 12:25:05;;;;;;;5.23;3.83;;;19.80;99.90;;;;;;5036737;28;20297;-93
2022/07/29 12:28:03;;;;;;;3.93;3.53;;;19.70;99.90;;;;;;5028043;28;20264;-93
2022/07/29 12:30:41;;;;;;;4.97;4.23;;;19.70;99.90;;;;;;5017290;28;20217;-94
2022/07/29 12:33:19;;;;;;;5.60;3.80;;;19.60;99.90;;;;;;5000219;28;20205;-93
2022/07/29 12:35:53;;;;;;;6.60;3.93;;;19.60;99.90;;;;;;5016769;28;20293;-93
2022/07/29 12:38:41;;;;;;;6.13;3.90;;;19.60;99.90;;;;;;5017310;28;20209;-92
2022/07/29 12:41:16;;;;;;;4.33;3.70;;;19.50;99.90;;;;;;5015668;28;20217;-93
2022/07/29 12:43:55;;;;;;;4.97;3.67;;;19.50;99.90;;;;;;5024761;28;20209;-93
2022/07/29 12:46:27;;;;;;;5.43;4.20;;;19.50;99.90;;;;;;5016286;28;20684;-93
2022/07/29 12:48:59;;;;;;;6.57;3.53;;;19.50;99.90;;;;;;5016662;28;20217;-93
2022/07/29 12:51:34;;;;;;;4.20;3.80;;;19.50;99.90;;;;;;5016106;28;20216;-93
2022/07/29 12:54:18;;;;;;;5.57;3.87;;;19.50;99.90;;;;;;4997232;28;20229;-93
2022/07/29 12:56:59;;;;;;;5.33;4.13;;;19.50;99.90;;;;;;4996975;28;20249;-93
2022/07/29 12:59:31;;;;;;;9.17;3.97;;;19.50;99.90;;;;;;4996764;28;20214;-94
2022/07/29 13:02:06;;;;;;;4.40;3.80;;;19.50;99.90;;;;;;4997090;28;20312;-93
2022/07/29 13:04:38;;;;;;;6.00;3.87;;;19.50;99.90;;;;;;5002182;28;20839;-94
2022/07/29 13:07:11;;;;;;;5.53;3.80;;;19.50;99.90;;;;;;5002625;28;20592;-93
2022/07/29 13:09:47;;;;;;;6.23;3.80;;;19.50;99.90;;;;;;5001582;28;20205;-93
2022/07/29 13:12:20;;;;;;;5.33;3.50;;;19.60;99.90;;;;;;5002105;28;20674;-94
2022/07/29 13:14:52;;;;;;;5.30;3.83;;;19.50;99.90;;;;;;5000648;28;20214;-94
2022/07/29 13:17:27;;;;;;;4.17;3.23;;;19.50;99.90;;;;;;5000958;28;20210;-94
2022/07/29 13:20:12;;;;;;;6.30;4.30;;;19.60;99.90;;;;;;5001359;28;20608;-94
2022/07/29 13:22:43;;;;;;;6.10;4.20;;;19.60;99.90;;;;;;5000937;28;20234;-94
2022/07/29 13:25:27;;;;;;;6.03;4.40;;;19.60;99.90;;;;;;5001408;28;20210;-94
2022/07/29 13:28:05;;;;;;;7.60;4.10;;;19.60;99.90;;;;;;5004401;28;20572;-93
2022/07/29 13:30:38;;;;;;;5.97;4.50;;;19.50;99.90;;;;;;5003310;28;20991;-93
2022/07/29 13:33:13;;;;;;;5.10;4.17;;;19.60;99.90;;;;;;5017130;28;20214;-93
2022/07/29 13:35:45;;;;;;;5.33;4.50;;;19.60;99.90;;;;;;5018447;28;20261;-93
2022/07/29 13:38:17;;;;;;;6.33;4.03;;;19.60;99.90;;;;;;5013287;28;20294;-94
2022/07/29 13:40:51;;;;;;;5.80;4.50;;;19.60;99.90;;;;;;5000669;28;20206;-93
2022/07/29 13:43:22;;;;;;;5.10;4.23;;;19.60;99.90;;;;;;5000057;28;20237;-94
2022/07/29 13:45:54;;;;;;;6.00;4.37;;;19.60;99.90;;;;;;4999363;28;20214;-94
2022/07/29 13:48:26;;;;;;;5.40;4.23;;;19.70;99.90;;;;;;4999115;28;20206;-94
2022/07/29 13:50:58;;;;;;;5.57;4.27;;;19.70;99.90;;;;;;4999028;28;20256;-93
2022/07/29 13:53:29;;;;;;;6.10;4.30;;;19.70;99.90;;;;;;4999561;28;20218;-94
2022/07/29 13:56:02;;;;;;;7.13;4.10;;;19.80;99.90;;;;;;4999351;28;20210;-94
2022/07/29 13:58:34;;;;;;;8.50;4.60;;;19.70;99.90;;;;;;4999836;28;20220;-94
2022/07/29 14:01:05;;;;;;;7.27;4.50;;;19.80;99.90;;;;;;4999049;28;20206;-94
2022/07/29 14:03:40;;;;;;;6.27;4.60;;;19.80;99.90;;;;;;4999142;28;20229;-94
2022/07/29 14:06:14;;;;;;;5.93;4.30;;;19.90;99.90;;;;;;4999906;28;20628;-94
2022/07/29 14:08:47;;;;;;;6.60;4.37;;;19.90;99.90;;;;;;5016402;28;20268;-94
2022/07/29 14:11:21;;;;;;;5.97;4.33;;;20.00;99.90;;;;;;5018233;28;20263;-94
2022/07/29 14:13:52;;;;;;;5.73;4.20;;;20.00;99.90;;;;;;5020573;28;20910;-93
2022/07/29 14:16:23;;;;;;;6.90;4.50;;;20.10;99.90;;;;;;5020111;28;20336;-94
2022/07/29 14:18:55;;;;;;;6.10;4.23;;;20.20;99.90;;;;;;5020085;28;20210;-94
2022/07/29 14:21:27;;;;;;;5.97;4.00;;;20.20;99.90;;;;;;5017172;28;20214;-94
2022/07/29 14:24:01;;;;;;;5.90;3.83;;;20.20;99.90;;;;;;4998835;28;20238;-94
2022/07/29 14:26:50;;;;;;;5.83;3.50;;;20.30;99.90;;;;;;4999796;28;20290;-94
2022/07/29 14:29:22;;;;;;;4.83;4.07;;;20.40;99.90;;;;;;4999708;28;20213;-94
2022/07/29 14:32:07;;;;;;;5.30;3.90;;;20.40;99.90;;;;;;4998915;28;20210;-94
2022/07/29 14:34:39;;;;;;;5.77;3.93;;;20.50;99.90;;;;;;4999629;28;20234;-94
2022/07/29 14:37:12;;;;;;;5.40;3.97;;;20.50;99.90;;;;;;4998895;28;20210;-93
2022/07/29 14:39:45;;;;;;;6.20;4.30;;;20.60;99.90;;;;;;4998806;28;20274;-93
2022/07/29 14:42:18;;;;;;;9.77;3.53;;;20.70;99.90;;;;;;4998358;28;20229;-94
2022/07/29 14:44:52;;;;;;;4.23;3.70;;;20.80;99.90;;;;;;5000921;28;20264;-94
2022/07/29 14:47:42;;;;;;;5.50;3.93;;;20.90;99.90;;;;;;5006123;28;20212;-93
2022/07/29 14:53:12;;;;;;;7.87;3.97;;;21.10;99.90;;;;;;5023324;28;20275;-94
2022/07/29 14:55:44;;;;;;;8.13;3.90;;;21.20;99.90;;;;;;5031994;28;20213;-94
2022/07/29 14:58:18;;;;;;;6.83;3.60;;;21.50;99.90;;;;;;5031298;28;20271;-94
2022/07/29 15:00:49;;;;;;;7.30;3.53;;;22.10;99.90;;;;;;5030167;28;20240;-94
2022/07/29 15:03:21;;;;;;;3.97;3.50;;;22.60;99.90;;;;;;5029888;28;20784;-94
2022/07/29 15:06:06;;;;;;;6.00;3.30;;;23.00;99.90;;;;;;5028981;28;20244;-94
2022/07/29 15:11:45;;;;;;;6.33;3.67;;;23.50;99.90;;;;;;5026854;28;20209;-93